sensor_id;sensor_type;location;lat;lon;timestamp;P1;durP1;ratioP1;P2;durP2;ratioP2
34072;SDS011;20346;52.702;16.886;2022-12-29T00:02:30;10.63;;;6.28;;
34072;SDS011;20346;52.702;16.886;2022-12-29T00:04:57;10.15;;;6.03;;
34072;SDS011;20346;52.702;16.886;2022-12-29T00:07:23;11.65;;;6.12;;
34072;SDS011;20346;52.702;16.886;2022-12-29T00:09:50;8.28;;;5.65;;
34072;SDS011;20346;52.702;16.886;2022-12-29T00:12:16;9.73;;;5.97;;
34072;SDS011;20346;52.702;16.886;2022-12-29T00:14:43;10.35;;;5.50;;
34072;SDS011;20346;52.702;16.886;2022-12-29T00:17:28;9.08;;;5.97;;
34072;SDS011;20346;52.702;16.886;2022-12-29T00:22:39;10.13;;;5.15;;
34072;SDS011;20346;52.702;16.886;2022-12-29T00:25:24;9.85;;;5.17;;
34072;SDS011;20346;52.702;16.886;2022-12-29T00:28:09;7.33;;;4.72;;
34072;SDS011;20346;52.702;16.886;2022-12-29T00:30:58;8.18;;;4.53;;
34072;SDS011;20346;52.702;16.886;2022-12-29T00:33:48;10.48;;;4.25;;
34072;SDS011;20346;52.702;16.886;2022-12-29T00:36:34;5.87;;;4.28;;
34072;SDS011;20346;52.702;16.886;2022-12-29T00:39:07;7.00;;;4.78;;
34072;SDS011;20346;52.702;16.886;2022-12-29T00:41:56;7.83;;;3.98;;
34072;SDS011;20346;52.702;16.886;2022-12-29T00:44:48;7.00;;;4.10;;
34072;SDS011;20346;52.702;16.886;2022-12-29T00:47:14;6.35;;;4.28;;
34072;SDS011;20346;52.702;16.886;2022-12-29T00:49:41;7.25;;;4.28;;
34072;SDS011;20346;52.702;16.886;2022-12-29T00:52:08;7.37;;;4.70;;
34072;SDS011;20346;52.702;16.886;2022-12-29T00:54:38;6.75;;;4.45;;
34072;SDS011;20346;52.702;16.886;2022-12-29T00:57:07;8.00;;;4.60;;
34072;SDS011;20346;52.702;16.886;2022-12-29T00:59:35;6.67;;;4.95;;
34072;SDS011;20346;52.702;16.886;2022-12-29T01:02:03;6.62;;;4.78;;
34072;SDS011;20346;52.702;16.886;2022-12-29T01:04:30;9.65;;;4.67;;
34072;SDS011;20346;52.702;16.886;2022-12-29T01:06:56;11.63;;;4.20;;
34072;SDS011;20346;52.702;16.886;2022-12-29T01:09:23;8.08;;;4.58;;
34072;SDS011;20346;52.702;16.886;2022-12-29T01:12:08;5.40;;;4.00;;
34072;SDS011;20346;52.702;16.886;2022-12-29T01:14:37;5.33;;;3.90;;
34072;SDS011;20346;52.702;16.886;2022-12-29T01:17:04;6.40;;;4.42;;
34072;SDS011;20346;52.702;16.886;2022-12-29T01:19:31;9.45;;;4.58;;
34072;SDS011;20346;52.702;16.886;2022-12-29T01:21:57;10.03;;;4.75;;
34072;SDS011;20346;52.702;16.886;2022-12-29T01:24:24;8.45;;;5.15;;
34072;SDS011;20346;52.702;16.886;2022-12-29T01:26:51;7.58;;;4.80;;
34072;SDS011;20346;52.702;16.886;2022-12-29T01:29:19;7.15;;;5.05;;
34072;SDS011;20346;52.702;16.886;2022-12-29T01:31:46;9.93;;;4.75;;
34072;SDS011;20346;52.702;16.886;2022-12-29T01:34:12;7.12;;;4.37;;
34072;SDS011;20346;52.702;16.886;2022-12-29T01:36:39;5.08;;;4.05;;
34072;SDS011;20346;52.702;16.886;2022-12-29T01:39:05;7.80;;;4.50;;
34072;SDS011;20346;52.702;16.886;2022-12-29T01:41:32;6.62;;;4.35;;
34072;SDS011;20346;52.702;16.886;2022-12-29T01:43:59;9.70;;;4.58;;
34072;SDS011;20346;52.702;16.886;2022-12-29T01:51:48;6.72;;;4.15;;
34072;SDS011;20346;52.702;16.886;2022-12-29T01:54:29;8.33;;;4.40;;
34072;SDS011;20346;52.702;16.886;2022-12-29T01:57:03;8.40;;;4.72;;
34072;SDS011;20346;52.702;16.886;2022-12-29T01:59:34;4.97;;;3.77;;
34072;SDS011;20346;52.702;16.886;2022-12-29T02:02:05;5.58;;;4.35;;
34072;SDS011;20346;52.702;16.886;2022-12-29T02:04:33;5.50;;;4.42;;
34072;SDS011;20346;52.702;16.886;2022-12-29T02:07:05;5.40;;;4.08;;
34072;SDS011;20346;52.702;16.886;2022-12-29T02:09:36;8.58;;;4.03;;
34072;SDS011;20346;52.702;16.886;2022-12-29T02:12:03;5.25;;;4.00;;
34072;SDS011;20346;52.702;16.886;2022-12-29T02:14:29;6.95;;;3.95;;
34072;SDS011;20346;52.702;16.886;2022-12-29T02:34:47;6.97;;;4.25;;
34072;SDS011;20346;52.702;16.886;2022-12-29T02:40:20;5.30;;;3.70;;
34072;SDS011;20346;52.702;16.886;2022-12-29T02:43:05;5.08;;;3.47;;
34072;SDS011;20346;52.702;16.886;2022-12-29T02:45:58;6.47;;;3.33;;
34072;SDS011;20346;52.702;16.886;2022-12-29T02:51:34;3.17;;;2.87;;
34072;SDS011;20346;52.702;16.886;2022-12-29T02:54:10;5.08;;;3.27;;
34072;SDS011;20346;52.702;16.886;2022-12-29T02:56:55;4.97;;;3.30;;
34072;SDS011;20346;52.702;16.886;2022-12-29T02:59:22;4.35;;;3.10;;
34072;SDS011;20346;52.702;16.886;2022-12-29T03:02:03;3.85;;;2.83;;
34072;SDS011;20346;52.702;16.886;2022-12-29T03:08:48;6.20;;;3.33;;
34072;SDS011;20346;52.702;16.886;2022-12-29T03:19:20;5.47;;;2.98;;
34072;SDS011;20346;52.702;16.886;2022-12-29T03:24:47;3.98;;;2.50;;
34072;SDS011;20346;52.702;16.886;2022-12-29T03:27:18;4.45;;;3.17;;
34072;SDS011;20346;52.702;16.886;2022-12-29T03:29:55;3.67;;;2.33;;
34072;SDS011;20346;52.702;16.886;2022-12-29T03:32:28;6.50;;;3.08;;
34072;SDS011;20346;52.702;16.886;2022-12-29T03:35:04;5.62;;;2.90;;
34072;SDS011;20346;52.702;16.886;2022-12-29T03:37:35;3.70;;;2.92;;
34072;SDS011;20346;52.702;16.886;2022-12-29T03:40:03;4.65;;;3.10;;
34072;SDS011;20346;52.702;16.886;2022-12-29T03:42:32;6.25;;;2.80;;
34072;SDS011;20346;52.702;16.886;2022-12-29T03:45:01;6.08;;;2.65;;
34072;SDS011;20346;52.702;16.886;2022-12-29T03:47:29;4.00;;;2.50;;
34072;SDS011;20346;52.702;16.886;2022-12-29T03:49:56;4.35;;;2.80;;
34072;SDS011;20346;52.702;16.886;2022-12-29T03:52:23;4.65;;;2.72;;
34072;SDS011;20346;52.702;16.886;2022-12-29T03:54:49;4.42;;;2.30;;
34072;SDS011;20346;52.702;16.886;2022-12-29T03:57:15;4.03;;;2.60;;
34072;SDS011;20346;52.702;16.886;2022-12-29T03:59:42;3.87;;;2.40;;
34072;SDS011;20346;52.702;16.886;2022-12-29T04:02:08;2.65;;;2.37;;
34072;SDS011;20346;52.702;16.886;2022-12-29T04:04:35;4.65;;;2.87;;
34072;SDS011;20346;52.702;16.886;2022-12-29T04:07:01;3.33;;;2.37;;
34072;SDS011;20346;52.702;16.886;2022-12-29T04:09:28;4.87;;;2.67;;
34072;SDS011;20346;52.702;16.886;2022-12-29T04:11:56;2.85;;;2.17;;
34072;SDS011;20346;52.702;16.886;2022-12-29T04:14:23;4.00;;;2.25;;
34072;SDS011;20346;52.702;16.886;2022-12-29T04:16:49;4.83;;;2.50;;
34072;SDS011;20346;52.702;16.886;2022-12-29T04:19:16;4.80;;;2.67;;
34072;SDS011;20346;52.702;16.886;2022-12-29T04:21:42;3.00;;;2.17;;
34072;SDS011;20346;52.702;16.886;2022-12-29T04:24:09;4.00;;;2.40;;
34072;SDS011;20346;52.702;16.886;2022-12-29T04:26:35;3.52;;;2.50;;
34072;SDS011;20346;52.702;16.886;2022-12-29T04:29:02;4.45;;;2.42;;
34072;SDS011;20346;52.702;16.886;2022-12-29T04:31:28;4.65;;;2.45;;
34072;SDS011;20346;52.702;16.886;2022-12-29T04:33:55;4.17;;;2.50;;
34072;SDS011;20346;52.702;16.886;2022-12-29T04:36:23;3.30;;;2.55;;
34072;SDS011;20346;52.702;16.886;2022-12-29T04:41:15;4.28;;;3.25;;
34072;SDS011;20346;52.702;16.886;2022-12-29T04:46:06;4.97;;;2.62;;
34072;SDS011;20346;52.702;16.886;2022-12-29T04:48:32;5.15;;;2.60;;
34072;SDS011;20346;52.702;16.886;2022-12-29T04:50:59;5.58;;;2.98;;
34072;SDS011;20346;52.702;16.886;2022-12-29T04:53:25;3.55;;;2.67;;
34072;SDS011;20346;52.702;16.886;2022-12-29T04:55:52;4.22;;;2.60;;
34072;SDS011;20346;52.702;16.886;2022-12-29T04:58:19;6.00;;;2.85;;
34072;SDS011;20346;52.702;16.886;2022-12-29T05:00:46;4.70;;;2.67;;
34072;SDS011;20346;52.702;16.886;2022-12-29T05:03:13;6.20;;;3.47;;
34072;SDS011;20346;52.702;16.886;2022-12-29T05:05:39;4.67;;;2.60;;
34072;SDS011;20346;52.702;16.886;2022-12-29T05:08:07;5.70;;;3.00;;
34072;SDS011;20346;52.702;16.886;2022-12-29T05:10:33;4.22;;;2.70;;
34072;SDS011;20346;52.702;16.886;2022-12-29T05:13:00;8.30;;;3.60;;
34072;SDS011;20346;52.702;16.886;2022-12-29T05:15:26;3.37;;;2.20;;
34072;SDS011;20346;52.702;16.886;2022-12-29T05:17:53;5.25;;;2.95;;
34072;SDS011;20346;52.702;16.886;2022-12-29T05:20:20;4.72;;;2.75;;
34072;SDS011;20346;52.702;16.886;2022-12-29T05:22:46;6.20;;;3.12;;
34072;SDS011;20346;52.702;16.886;2022-12-29T05:25:13;3.42;;;2.85;;
34072;SDS011;20346;52.702;16.886;2022-12-29T05:27:39;4.55;;;2.15;;
34072;SDS011;20346;52.702;16.886;2022-12-29T05:30:06;3.33;;;2.50;;
34072;SDS011;20346;52.702;16.886;2022-12-29T05:32:34;4.67;;;2.42;;
34072;SDS011;20346;52.702;16.886;2022-12-29T05:35:00;5.35;;;3.12;;
34072;SDS011;20346;52.702;16.886;2022-12-29T05:37:27;4.10;;;2.80;;
34072;SDS011;20346;52.702;16.886;2022-12-29T05:39:53;7.20;;;3.00;;
34072;SDS011;20346;52.702;16.886;2022-12-29T05:42:20;3.70;;;2.72;;
34072;SDS011;20346;52.702;16.886;2022-12-29T05:44:47;6.17;;;2.67;;
34072;SDS011;20346;52.702;16.886;2022-12-29T05:47:15;3.75;;;2.42;;
34072;SDS011;20346;52.702;16.886;2022-12-29T05:49:41;2.90;;;2.60;;
34072;SDS011;20346;52.702;16.886;2022-12-29T05:52:08;3.75;;;2.45;;
34072;SDS011;20346;52.702;16.886;2022-12-29T05:54:34;7.03;;;3.37;;
34072;SDS011;20346;52.702;16.886;2022-12-29T05:57:01;3.37;;;2.58;;
34072;SDS011;20346;52.702;16.886;2022-12-29T05:59:27;3.72;;;2.47;;
34072;SDS011;20346;52.702;16.886;2022-12-29T06:01:54;3.83;;;2.47;;
34072;SDS011;20346;52.702;16.886;2022-12-29T06:04:20;3.95;;;2.85;;
34072;SDS011;20346;52.702;16.886;2022-12-29T06:06:47;6.10;;;2.90;;
34072;SDS011;20346;52.702;16.886;2022-12-29T06:09:14;3.37;;;2.42;;
34072;SDS011;20346;52.702;16.886;2022-12-29T06:11:40;4.10;;;2.72;;
34072;SDS011;20346;52.702;16.886;2022-12-29T06:14:07;3.33;;;2.47;;
34072;SDS011;20346;52.702;16.886;2022-12-29T06:16:33;7.20;;;2.70;;
34072;SDS011;20346;52.702;16.886;2022-12-29T06:19:00;4.15;;;2.87;;
34072;SDS011;20346;52.702;16.886;2022-12-29T06:21:26;4.60;;;2.42;;
34072;SDS011;20346;52.702;16.886;2022-12-29T06:23:53;3.52;;;2.87;;
34072;SDS011;20346;52.702;16.886;2022-12-29T06:26:19;7.75;;;3.50;;
34072;SDS011;20346;52.702;16.886;2022-12-29T06:28:46;3.60;;;2.83;;
34072;SDS011;20346;52.702;16.886;2022-12-29T06:31:12;5.25;;;3.10;;
34072;SDS011;20346;52.702;16.886;2022-12-29T06:33:39;6.05;;;3.10;;
34072;SDS011;20346;52.702;16.886;2022-12-29T06:36:06;4.95;;;3.22;;
34072;SDS011;20346;52.702;16.886;2022-12-29T06:38:33;5.80;;;3.15;;
34072;SDS011;20346;52.702;16.886;2022-12-29T06:41:00;5.55;;;3.30;;
34072;SDS011;20346;52.702;16.886;2022-12-29T06:43:27;5.00;;;3.22;;
34072;SDS011;20346;52.702;16.886;2022-12-29T06:45:53;4.75;;;3.22;;
34072;SDS011;20346;52.702;16.886;2022-12-29T06:48:20;6.78;;;3.60;;
34072;SDS011;20346;52.702;16.886;2022-12-29T06:50:46;4.53;;;3.00;;
34072;SDS011;20346;52.702;16.886;2022-12-29T06:53:13;4.83;;;3.20;;
34072;SDS011;20346;52.702;16.886;2022-12-29T06:55:39;4.72;;;3.10;;
34072;SDS011;20346;52.702;16.886;2022-12-29T06:58:08;4.65;;;3.40;;
34072;SDS011;20346;52.702;16.886;2022-12-29T07:00:34;4.85;;;3.27;;
34072;SDS011;20346;52.702;16.886;2022-12-29T07:03:01;5.85;;;4.00;;
34072;SDS011;20346;52.702;16.886;2022-12-29T07:05:28;7.95;;;3.95;;
34072;SDS011;20346;52.702;16.886;2022-12-29T07:07:56;6.87;;;4.22;;
34072;SDS011;20346;52.702;16.886;2022-12-29T07:15:16;5.70;;;3.40;;
34072;SDS011;20346;52.702;16.886;2022-12-29T07:17:42;5.65;;;3.08;;
34072;SDS011;20346;52.702;16.886;2022-12-29T07:20:09;5.65;;;3.60;;
34072;SDS011;20346;52.702;16.886;2022-12-29T07:25:02;5.40;;;2.98;;
34072;SDS011;20346;52.702;16.886;2022-12-29T07:27:29;6.03;;;3.60;;
34072;SDS011;20346;52.702;16.886;2022-12-29T07:29:56;4.08;;;3.10;;
34072;SDS011;20346;52.702;16.886;2022-12-29T07:32:22;3.77;;;2.37;;
34072;SDS011;20346;52.702;16.886;2022-12-29T07:34:49;4.45;;;2.45;;
34072;SDS011;20346;52.702;16.886;2022-12-29T07:37:15;8.28;;;3.00;;
34072;SDS011;20346;52.702;16.886;2022-12-29T07:39:42;4.75;;;2.70;;
34072;SDS011;20346;52.702;16.886;2022-12-29T07:42:08;6.08;;;2.98;;
34072;SDS011;20346;52.702;16.886;2022-12-29T07:44:35;4.10;;;2.60;;
34072;SDS011;20346;52.702;16.886;2022-12-29T07:47:02;3.25;;;2.40;;
34072;SDS011;20346;52.702;16.886;2022-12-29T07:49:28;3.42;;;2.62;;
34072;SDS011;20346;52.702;16.886;2022-12-29T07:51:55;3.83;;;2.62;;
34072;SDS011;20346;52.702;16.886;2022-12-29T07:54:21;3.72;;;2.58;;
34072;SDS011;20346;52.702;16.886;2022-12-29T07:59:14;3.47;;;2.60;;
34072;SDS011;20346;52.702;16.886;2022-12-29T08:01:41;4.37;;;3.02;;
34072;SDS011;20346;52.702;16.886;2022-12-29T08:04:07;3.98;;;2.80;;
34072;SDS011;20346;52.702;16.886;2022-12-29T08:06:36;3.50;;;2.87;;
34072;SDS011;20346;52.702;16.886;2022-12-29T08:09:04;6.17;;;3.30;;
34072;SDS011;20346;52.702;16.886;2022-12-29T08:11:31;8.83;;;3.47;;
34072;SDS011;20346;52.702;16.886;2022-12-29T08:13:57;4.42;;;3.30;;
34072;SDS011;20346;52.702;16.886;2022-12-29T08:16:24;6.20;;;3.90;;
34072;SDS011;20346;52.702;16.886;2022-12-29T08:18:51;4.75;;;3.05;;
34072;SDS011;20346;52.702;16.886;2022-12-29T08:21:17;5.05;;;3.12;;
34072;SDS011;20346;52.702;16.886;2022-12-29T08:23:43;4.37;;;3.35;;
34072;SDS011;20346;52.702;16.886;2022-12-29T08:26:10;4.70;;;3.30;;
34072;SDS011;20346;52.702;16.886;2022-12-29T08:28:36;4.85;;;3.45;;
34072;SDS011;20346;52.702;16.886;2022-12-29T08:31:03;6.33;;;4.12;;
34072;SDS011;20346;52.702;16.886;2022-12-29T08:33:30;5.85;;;3.62;;
34072;SDS011;20346;52.702;16.886;2022-12-29T08:36:00;6.00;;;3.70;;
34072;SDS011;20346;52.702;16.886;2022-12-29T08:38:29;6.70;;;4.75;;
34072;SDS011;20346;52.702;16.886;2022-12-29T08:40:56;6.58;;;4.45;;
34072;SDS011;20346;52.702;16.886;2022-12-29T08:43:24;6.00;;;4.12;;
34072;SDS011;20346;52.702;16.886;2022-12-29T08:45:51;8.23;;;4.35;;
34072;SDS011;20346;52.702;16.886;2022-12-29T08:48:17;4.75;;;4.22;;
34072;SDS011;20346;52.702;16.886;2022-12-29T08:50:45;6.05;;;3.83;;
34072;SDS011;20346;52.702;16.886;2022-12-29T08:53:12;7.30;;;3.60;;
34072;SDS011;20346;52.702;16.886;2022-12-29T08:55:39;6.33;;;3.70;;
34072;SDS011;20346;52.702;16.886;2022-12-29T08:58:06;5.60;;;3.40;;
34072;SDS011;20346;52.702;16.886;2022-12-29T09:00:32;7.42;;;4.22;;
34072;SDS011;20346;52.702;16.886;2022-12-29T09:02:59;5.62;;;3.45;;
34072;SDS011;20346;52.702;16.886;2022-12-29T09:05:25;5.97;;;3.45;;
34072;SDS011;20346;52.702;16.886;2022-12-29T09:07:52;6.47;;;3.65;;
34072;SDS011;20346;52.702;16.886;2022-12-29T09:10:19;8.98;;;3.85;;
34072;SDS011;20346;52.702;16.886;2022-12-29T09:12:45;5.78;;;3.83;;
34072;SDS011;20346;52.702;16.886;2022-12-29T09:15:11;9.15;;;4.03;;
34072;SDS011;20346;52.702;16.886;2022-12-29T09:17:39;6.90;;;3.98;;
34072;SDS011;20346;52.702;16.886;2022-12-29T09:20:10;4.85;;;3.45;;
34072;SDS011;20346;52.702;16.886;2022-12-29T09:22:39;5.10;;;3.95;;
34072;SDS011;20346;52.702;16.886;2022-12-29T09:27:34;4.85;;;3.52;;
34072;SDS011;20346;52.702;16.886;2022-12-29T09:30:05;7.10;;;2.85;;
34072;SDS011;20346;52.702;16.886;2022-12-29T09:32:35;6.60;;;3.25;;
34072;SDS011;20346;52.702;16.886;2022-12-29T09:35:02;3.90;;;3.42;;
34072;SDS011;20346;52.702;16.886;2022-12-29T09:37:30;4.97;;;3.20;;
34072;SDS011;20346;52.702;16.886;2022-12-29T09:39:56;5.17;;;3.70;;
34072;SDS011;20346;52.702;16.886;2022-12-29T09:46:11;6.20;;;3.45;;
34072;SDS011;20346;52.702;16.886;2022-12-29T09:47:53;5.35;;;2.65;;
34072;SDS011;20346;52.702;16.886;2022-12-29T09:53:02;5.50;;;3.33;;
34072;SDS011;20346;52.702;16.886;2022-12-29T09:55:48;3.95;;;2.85;;
34072;SDS011;20346;52.702;16.886;2022-12-29T09:58:26;4.15;;;2.85;;
34072;SDS011;20346;52.702;16.886;2022-12-29T10:01:00;3.83;;;2.50;;
34072;SDS011;20346;52.702;16.886;2022-12-29T10:03:49;3.15;;;2.70;;
34072;SDS011;20346;52.702;16.886;2022-12-29T10:06:39;4.08;;;2.90;;
34072;SDS011;20346;52.702;16.886;2022-12-29T10:25:55;4.33;;;2.67;;
34072;SDS011;20346;52.702;16.886;2022-12-29T10:28:31;6.72;;;2.72;;
34072;SDS011;20346;52.702;16.886;2022-12-29T10:31:15;6.08;;;2.77;;
34072;SDS011;20346;52.702;16.886;2022-12-29T10:33:46;3.77;;;2.42;;
34072;SDS011;20346;52.702;16.886;2022-12-29T10:36:35;2.95;;;2.37;;
34072;SDS011;20346;52.702;16.886;2022-12-29T10:41:51;5.65;;;3.08;;
34072;SDS011;20346;52.702;16.886;2022-12-29T10:44:36;4.00;;;2.95;;
34072;SDS011;20346;52.702;16.886;2022-12-29T10:49:40;3.67;;;2.72;;
34072;SDS011;20346;52.702;16.886;2022-12-29T10:52:08;6.50;;;3.08;;
34072;SDS011;20346;52.702;16.886;2022-12-29T10:54:49;4.47;;;3.02;;
34072;SDS011;20346;52.702;16.886;2022-12-29T10:57:39;4.83;;;2.83;;
34072;SDS011;20346;52.702;16.886;2022-12-29T11:00:11;6.20;;;3.00;;
34072;SDS011;20346;52.702;16.886;2022-12-29T11:05:36;4.05;;;2.58;;
34072;SDS011;20346;52.702;16.886;2022-12-29T11:08:30;3.52;;;2.70;;
34072;SDS011;20346;52.702;16.886;2022-12-29T11:11:02;4.42;;;3.20;;
34072;SDS011;20346;52.702;16.886;2022-12-29T11:13:32;8.40;;;3.22;;
34072;SDS011;20346;52.702;16.886;2022-12-29T11:16:01;3.77;;;2.83;;
34072;SDS011;20346;52.702;16.886;2022-12-29T11:18:39;4.90;;;3.10;;
34072;SDS011;20346;52.702;16.886;2022-12-29T11:21:05;4.55;;;3.20;;
34072;SDS011;20346;52.702;16.886;2022-12-29T11:23:58;6.80;;;3.58;;
34072;SDS011;20346;52.702;16.886;2022-12-29T11:26:30;4.60;;;3.30;;
34072;SDS011;20346;52.702;16.886;2022-12-29T11:31:51;4.20;;;2.30;;
34072;SDS011;20346;52.702;16.886;2022-12-29T11:34:24;4.17;;;2.52;;
34072;SDS011;20346;52.702;16.886;2022-12-29T11:37:10;3.58;;;2.45;;
34072;SDS011;20346;52.702;16.886;2022-12-29T11:42:16;6.90;;;2.70;;
34072;SDS011;20346;52.702;16.886;2022-12-29T11:44:48;4.17;;;2.40;;
34072;SDS011;20346;52.702;16.886;2022-12-29T11:47:26;3.65;;;2.20;;
34072;SDS011;20346;52.702;16.886;2022-12-29T11:49:57;7.03;;;3.10;;
34072;SDS011;20346;52.702;16.886;2022-12-29T11:52:28;3.72;;;2.40;;
34072;SDS011;20346;52.702;16.886;2022-12-29T11:54:59;6.97;;;3.08;;
34072;SDS011;20346;52.702;16.886;2022-12-29T11:57:29;4.90;;;2.60;;
34072;SDS011;20346;52.702;16.886;2022-12-29T11:59:59;5.17;;;3.05;;
34072;SDS011;20346;52.702;16.886;2022-12-29T12:02:32;4.15;;;2.98;;
34072;SDS011;20346;52.702;16.886;2022-12-29T12:05:19;3.33;;;2.22;;
34072;SDS011;20346;52.702;16.886;2022-12-29T12:07:54;3.02;;;2.27;;
34072;SDS011;20346;52.702;16.886;2022-12-29T12:10:42;4.12;;;2.70;;
34072;SDS011;20346;52.702;16.886;2022-12-29T12:13:14;3.87;;;2.27;;
34072;SDS011;20346;52.702;16.886;2022-12-29T12:15:46;5.10;;;2.67;;
34072;SDS011;20346;52.702;16.886;2022-12-29T12:18:33;5.28;;;2.00;;
34072;SDS011;20346;52.702;16.886;2022-12-29T12:26:27;3.55;;;1.90;;
34072;SDS011;20346;52.702;16.886;2022-12-29T12:29:01;2.90;;;1.75;;
34072;SDS011;20346;52.702;16.886;2022-12-29T12:31:57;3.30;;;1.98;;
34072;SDS011;20346;52.702;16.886;2022-12-29T12:34:37;2.08;;;1.50;;
34072;SDS011;20346;52.702;16.886;2022-12-29T12:56:57;4.80;;;2.75;;
34072;SDS011;20346;52.702;16.886;2022-12-29T12:59:49;4.45;;;1.90;;
34072;SDS011;20346;52.702;16.886;2022-12-29T13:16:42;5.08;;;2.52;;
34072;SDS011;20346;52.702;16.886;2022-12-29T13:19:31;2.22;;;1.92;;
34072;SDS011;20346;52.702;16.886;2022-12-29T13:22:19;3.65;;;2.35;;
34072;SDS011;20346;52.702;16.886;2022-12-29T13:24:57;2.75;;;2.10;;
34072;SDS011;20346;52.702;16.886;2022-12-29T13:30:42;6.92;;;2.30;;
34072;SDS011;20346;52.702;16.886;2022-12-29T13:38:43;3.58;;;2.17;;
34072;SDS011;20346;52.702;16.886;2022-12-29T13:41:25;3.80;;;2.30;;
34072;SDS011;20346;52.702;16.886;2022-12-29T13:43:45;6.72;;;2.22;;
34072;SDS011;20346;52.702;16.886;2022-12-29T13:46:21;5.30;;;2.70;;
34072;SDS011;20346;52.702;16.886;2022-12-29T13:48:56;5.62;;;2.52;;
34072;SDS011;20346;52.702;16.886;2022-12-29T13:51:26;5.45;;;3.05;;
34072;SDS011;20346;52.702;16.886;2022-12-29T13:54:01;4.30;;;3.05;;
34072;SDS011;20346;52.702;16.886;2022-12-29T13:56:58;8.13;;;3.10;;
34072;SDS011;20346;52.702;16.886;2022-12-29T13:59:45;5.25;;;2.85;;
34072;SDS011;20346;52.702;16.886;2022-12-29T14:02:37;5.97;;;2.95;;
34072;SDS011;20346;52.702;16.886;2022-12-29T14:08:00;6.62;;;3.55;;
34072;SDS011;20346;52.702;16.886;2022-12-29T14:15:55;3.92;;;2.55;;
34072;SDS011;20346;52.702;16.886;2022-12-29T14:18:31;5.80;;;2.90;;
34072;SDS011;20346;52.702;16.886;2022-12-29T14:21:18;4.70;;;3.27;;
34072;SDS011;20346;52.702;16.886;2022-12-29T14:23:49;4.53;;;3.00;;
34072;SDS011;20346;52.702;16.886;2022-12-29T14:29:42;5.25;;;3.12;;
34072;SDS011;20346;52.702;16.886;2022-12-29T14:31:54;8.43;;;4.00;;
34072;SDS011;20346;52.702;16.886;2022-12-29T14:34:26;5.87;;;4.03;;
34072;SDS011;20346;52.702;16.886;2022-12-29T14:42:05;11.28;;;5.12;;
34072;SDS011;20346;52.702;16.886;2022-12-29T14:44:53;10.23;;;4.80;;
34072;SDS011;20346;52.702;16.886;2022-12-29T14:52:56;6.42;;;4.50;;
34072;SDS011;20346;52.702;16.886;2022-12-29T14:55:41;6.47;;;4.08;;
34072;SDS011;20346;52.702;16.886;2022-12-29T15:00:54;6.72;;;4.30;;
34072;SDS011;20346;52.702;16.886;2022-12-29T15:03:24;6.05;;;3.50;;
34072;SDS011;20346;52.702;16.886;2022-12-29T15:06:05;5.50;;;3.85;;
34072;SDS011;20346;52.702;16.886;2022-12-29T15:08:38;5.50;;;3.58;;
34072;SDS011;20346;52.702;16.886;2022-12-29T15:11:21;5.72;;;3.95;;
34072;SDS011;20346;52.702;16.886;2022-12-29T15:17:09;8.53;;;4.22;;
34072;SDS011;20346;52.702;16.886;2022-12-29T15:19:55;8.55;;;4.00;;
34072;SDS011;20346;52.702;16.886;2022-12-29T15:22:23;6.87;;;4.37;;
34072;SDS011;20346;52.702;16.886;2022-12-29T15:24:51;8.70;;;4.33;;
34072;SDS011;20346;52.702;16.886;2022-12-29T15:27:21;7.75;;;4.87;;
34072;SDS011;20346;52.702;16.886;2022-12-29T15:30:01;6.97;;;4.12;;
34072;SDS011;20346;52.702;16.886;2022-12-29T15:32:28;5.62;;;4.00;;
34072;SDS011;20346;52.702;16.886;2022-12-29T15:34:58;6.42;;;4.00;;
34072;SDS011;20346;52.702;16.886;2022-12-29T15:37:33;6.33;;;4.05;;
34072;SDS011;20346;52.702;16.886;2022-12-29T15:40:01;6.83;;;4.22;;
34072;SDS011;20346;52.702;16.886;2022-12-29T15:42:47;5.90;;;4.00;;
34072;SDS011;20346;52.702;16.886;2022-12-29T15:45:18;8.68;;;4.30;;
34072;SDS011;20346;52.702;16.886;2022-12-29T15:47:45;9.20;;;4.45;;
34072;SDS011;20346;52.702;16.886;2022-12-29T15:50:21;7.33;;;3.58;;
34072;SDS011;20346;52.702;16.886;2022-12-29T15:52:52;6.62;;;4.03;;
34072;SDS011;20346;52.702;16.886;2022-12-29T15:55:51;7.83;;;4.22;;
34072;SDS011;20346;52.702;16.886;2022-12-29T15:58:02;7.00;;;4.30;;
34072;SDS011;20346;52.702;16.886;2022-12-29T16:00:34;6.42;;;3.83;;
34072;SDS011;20346;52.702;16.886;2022-12-29T16:03:04;6.35;;;3.87;;
34072;SDS011;20346;52.702;16.886;2022-12-29T16:05:37;7.22;;;4.55;;
34072;SDS011;20346;52.702;16.886;2022-12-29T16:08:02;7.33;;;4.03;;
34072;SDS011;20346;52.702;16.886;2022-12-29T16:10:32;6.92;;;4.10;;
34072;SDS011;20346;52.702;16.886;2022-12-29T16:16:08;6.12;;;3.80;;
34072;SDS011;20346;52.702;16.886;2022-12-29T16:18:54;5.65;;;3.20;;
34072;SDS011;20346;52.702;16.886;2022-12-29T16:21:28;4.40;;;3.42;;
34072;SDS011;20346;52.702;16.886;2022-12-29T16:24:02;10.63;;;3.55;;
34072;SDS011;20346;52.702;16.886;2022-12-29T16:26:36;8.43;;;3.45;;
34072;SDS011;20346;52.702;16.886;2022-12-29T16:29:05;8.63;;;4.03;;
34072;SDS011;20346;52.702;16.886;2022-12-29T16:31:34;7.50;;;3.30;;
34072;SDS011;20346;52.702;16.886;2022-12-29T16:34:28;6.75;;;4.35;;
34072;SDS011;20346;52.702;16.886;2022-12-29T16:36:58;5.85;;;4.25;;
34072;SDS011;20346;52.702;16.886;2022-12-29T16:39:47;6.78;;;3.58;;
34072;SDS011;20346;52.702;16.886;2022-12-29T16:48:16;7.75;;;4.62;;
34072;SDS011;20346;52.702;16.886;2022-12-29T16:51:21;9.83;;;5.42;;
34072;SDS011;20346;52.702;16.886;2022-12-29T16:54:00;10.32;;;5.17;;
34072;SDS011;20346;52.702;16.886;2022-12-29T16:56:34;10.70;;;5.47;;
34072;SDS011;20346;52.702;16.886;2022-12-29T16:59:08;8.63;;;4.95;;
34072;SDS011;20346;52.702;16.886;2022-12-29T17:01:51;9.43;;;5.30;;
34072;SDS011;20346;52.702;16.886;2022-12-29T17:04:21;9.20;;;5.37;;
34072;SDS011;20346;52.702;16.886;2022-12-29T17:07:27;8.18;;;5.35;;
34072;SDS011;20346;52.702;16.886;2022-12-29T17:09:59;11.73;;;5.60;;
34072;SDS011;20346;52.702;16.886;2022-12-29T17:12:27;10.63;;;5.83;;
34072;SDS011;20346;52.702;16.886;2022-12-29T17:20:59;11.75;;;6.15;;
34072;SDS011;20346;52.702;16.886;2022-12-29T17:23:46;13.50;;;6.45;;
34072;SDS011;20346;52.702;16.886;2022-12-29T17:26:50;7.87;;;5.33;;
34072;SDS011;20346;52.702;16.886;2022-12-29T17:30:35;9.98;;;6.25;;
34072;SDS011;20346;52.702;16.886;2022-12-29T17:37:45;8.43;;;5.05;;
34072;SDS011;20346;52.702;16.886;2022-12-29T17:41:02;12.05;;;5.00;;
34072;SDS011;20346;52.702;16.886;2022-12-29T17:44:08;10.10;;;4.87;;
34072;SDS011;20346;52.702;16.886;2022-12-29T17:47:02;9.98;;;6.15;;
34072;SDS011;20346;52.702;16.886;2022-12-29T17:49:31;9.58;;;5.22;;
34072;SDS011;20346;52.702;16.886;2022-12-29T17:51:57;10.25;;;5.62;;
34072;SDS011;20346;52.702;16.886;2022-12-29T17:54:24;11.15;;;5.55;;
34072;SDS011;20346;52.702;16.886;2022-12-29T17:56:51;11.95;;;5.22;;
34072;SDS011;20346;52.702;16.886;2022-12-29T17:59:38;13.15;;;6.55;;
34072;SDS011;20346;52.702;16.886;2022-12-29T18:02:28;12.33;;;5.80;;
34072;SDS011;20346;52.702;16.886;2022-12-29T18:05:26;11.85;;;5.60;;
34072;SDS011;20346;52.702;16.886;2022-12-29T18:07:56;8.68;;;5.22;;
34072;SDS011;20346;52.702;16.886;2022-12-29T18:10:28;10.08;;;4.97;;
34072;SDS011;20346;52.702;16.886;2022-12-29T18:12:57;7.85;;;5.03;;
34072;SDS011;20346;52.702;16.886;2022-12-29T18:15:28;6.50;;;4.50;;
34072;SDS011;20346;52.702;16.886;2022-12-29T18:18:11;7.78;;;5.20;;
34072;SDS011;20346;52.702;16.886;2022-12-29T18:20:53;6.75;;;4.67;;